sensor_id;sensor_type;location;lat;lon;timestamp;P1;durP1;ratioP1;P2;durP2;ratioP2
16954;SDS011;8594;52.052;8.354;2023-05-24T00:01:54;18.23;;;4.00;;
16954;SDS011;8594;52.052;8.354;2023-05-24T00:04:21;16.80;;;3.83;;
16954;SDS011;8594;52.052;8.354;2023-05-24T00:06:48;24.07;;;3.50;;
16954;SDS011;8594;52.052;8.354;2023-05-24T00:09:18;18.13;;;3.10;;
16954;SDS011;8594;52.052;8.354;2023-05-24T00:11:46;15.47;;;3.67;;
16954;SDS011;8594;52.052;8.354;2023-05-24T00:14:13;25.33;;;3.90;;
16954;SDS011;8594;52.052;8.354;2023-05-24T00:16:40;20.20;;;3.57;;
16954;SDS011;8594;52.052;8.354;2023-05-24T00:19:07;31.33;;;3.90;;
16954;SDS011;8594;52.052;8.354;2023-05-24T00:21:35;21.00;;;3.60;;
16954;SDS011;8594;52.052;8.354;2023-05-24T00:24:01;12.50;;;3.10;;
16954;SDS011;8594;52.052;8.354;2023-05-24T00:26:28;18.17;;;3.60;;
16954;SDS011;8594;52.052;8.354;2023-05-24T00:28:56;12.50;;;3.40;;
16954;SDS011;8594;52.052;8.354;2023-05-24T00:31:23;18.53;;;3.77;;
16954;SDS011;8594;52.052;8.354;2023-05-24T00:33:50;13.87;;;3.10;;
16954;SDS011;8594;52.052;8.354;2023-05-24T00:36:17;16.87;;;3.50;;
16954;SDS011;8594;52.052;8.354;2023-05-24T00:38:44;14.67;;;3.00;;
16954;SDS011;8594;52.052;8.354;2023-05-24T00:41:11;14.10;;;3.40;;
16954;SDS011;8594;52.052;8.354;2023-05-24T00:43:37;13.47;;;2.97;;
16954;SDS011;8594;52.052;8.354;2023-05-24T00:46:13;17.07;;;3.57;;
16954;SDS011;8594;52.052;8.354;2023-05-24T00:48:44;13.80;;;3.80;;
16954;SDS011;8594;52.052;8.354;2023-05-24T00:51:11;19.47;;;3.33;;
16954;SDS011;8594;52.052;8.354;2023-05-24T00:53:39;18.30;;;3.40;;
16954;SDS011;8594;52.052;8.354;2023-05-24T00:56:10;14.37;;;3.33;;
16954;SDS011;8594;52.052;8.354;2023-05-24T00:58:39;18.90;;;3.60;;
16954;SDS011;8594;52.052;8.354;2023-05-24T01:01:06;19.40;;;3.50;;
16954;SDS011;8594;52.052;8.354;2023-05-24T01:03:34;13.60;;;3.50;;
16954;SDS011;8594;52.052;8.354;2023-05-24T01:06:01;18.27;;;4.40;;
16954;SDS011;8594;52.052;8.354;2023-05-24T01:08:41;21.70;;;3.67;;
16954;SDS011;8594;52.052;8.354;2023-05-24T01:11:21;21.40;;;3.63;;
16954;SDS011;8594;52.052;8.354;2023-05-24T01:14:02;11.47;;;3.43;;
16954;SDS011;8594;52.052;8.354;2023-05-24T01:16:44;14.23;;;3.90;;
16954;SDS011;8594;52.052;8.354;2023-05-24T01:19:30;21.23;;;3.60;;
16954;SDS011;8594;52.052;8.354;2023-05-24T01:22:17;17.63;;;3.13;;
16954;SDS011;8594;52.052;8.354;2023-05-24T01:24:59;20.67;;;3.97;;
16954;SDS011;8594;52.052;8.354;2023-05-24T01:27:33;19.80;;;3.90;;
16954;SDS011;8594;52.052;8.354;2023-05-24T01:30:03;18.13;;;3.57;;
16954;SDS011;8594;52.052;8.354;2023-05-24T01:32:32;16.97;;;4.07;;
16954;SDS011;8594;52.052;8.354;2023-05-24T01:34:59;19.63;;;4.10;;
16954;SDS011;8594;52.052;8.354;2023-05-24T01:37:26;14.83;;;3.50;;
16954;SDS011;8594;52.052;8.354;2023-05-24T01:39:53;24.23;;;4.07;;
16954;SDS011;8594;52.052;8.354;2023-05-24T01:42:22;23.50;;;3.67;;
16954;SDS011;8594;52.052;8.354;2023-05-24T01:44:59;18.00;;;3.97;;
16954;SDS011;8594;52.052;8.354;2023-05-24T01:47:36;15.97;;;3.40;;
16954;SDS011;8594;52.052;8.354;2023-05-24T01:50:27;20.90;;;3.53;;
16954;SDS011;8594;52.052;8.354;2023-05-24T01:53:00;18.70;;;4.00;;
16954;SDS011;8594;52.052;8.354;2023-05-24T01:55:33;25.80;;;4.80;;
16954;SDS011;8594;52.052;8.354;2023-05-24T01:58:03;19.37;;;3.67;;
16954;SDS011;8594;52.052;8.354;2023-05-24T02:00:33;12.03;;;3.67;;
16954;SDS011;8594;52.052;8.354;2023-05-24T02:03:00;12.73;;;3.37;;
16954;SDS011;8594;52.052;8.354;2023-05-24T02:05:28;15.63;;;4.13;;
16954;SDS011;8594;52.052;8.354;2023-05-24T02:07:56;14.23;;;3.60;;
16954;SDS011;8594;52.052;8.354;2023-05-24T02:10:23;13.43;;;4.00;;
16954;SDS011;8594;52.052;8.354;2023-05-24T02:12:50;15.63;;;4.07;;
16954;SDS011;8594;52.052;8.354;2023-05-24T02:15:17;14.47;;;3.40;;
16954;SDS011;8594;52.052;8.354;2023-05-24T02:17:46;11.97;;;3.60;;
16954;SDS011;8594;52.052;8.354;2023-05-24T02:20:13;16.10;;;3.90;;
16954;SDS011;8594;52.052;8.354;2023-05-24T02:22:41;15.00;;;4.07;;
16954;SDS011;8594;52.052;8.354;2023-05-24T02:25:08;17.63;;;3.90;;
16954;SDS011;8594;52.052;8.354;2023-05-24T02:27:34;14.20;;;3.70;;
16954;SDS011;8594;52.052;8.354;2023-05-24T02:30:01;19.77;;;3.87;;
16954;SDS011;8594;52.052;8.354;2023-05-24T02:32:29;16.07;;;3.70;;
16954;SDS011;8594;52.052;8.354;2023-05-24T02:34:58;18.40;;;3.50;;
16954;SDS011;8594;52.052;8.354;2023-05-24T02:37:25;19.47;;;4.03;;
16954;SDS011;8594;52.052;8.354;2023-05-24T02:39:52;12.83;;;3.57;;
16954;SDS011;8594;52.052;8.354;2023-05-24T02:42:19;15.53;;;3.80;;
16954;SDS011;8594;52.052;8.354;2023-05-24T02:44:46;17.73;;;4.07;;
16954;SDS011;8594;52.052;8.354;2023-05-24T02:47:13;11.43;;;3.33;;
16954;SDS011;8594;52.052;8.354;2023-05-24T02:49:40;18.90;;;4.27;;
16954;SDS011;8594;52.052;8.354;2023-05-24T02:52:08;12.77;;;3.70;;
16954;SDS011;8594;52.052;8.354;2023-05-24T02:54:35;11.00;;;3.57;;
16954;SDS011;8594;52.052;8.354;2023-05-24T02:57:02;20.70;;;4.00;;
16954;SDS011;8594;52.052;8.354;2023-05-24T02:59:30;14.13;;;3.83;;
16954;SDS011;8594;52.052;8.354;2023-05-24T03:01:57;13.37;;;4.00;;
16954;SDS011;8594;52.052;8.354;2023-05-24T03:04:24;21.03;;;4.00;;
16954;SDS011;8594;52.052;8.354;2023-05-24T03:06:51;15.13;;;3.70;;
16954;SDS011;8594;52.052;8.354;2023-05-24T03:09:19;10.83;;;3.00;;
16954;SDS011;8594;52.052;8.354;2023-05-24T03:11:46;18.37;;;3.90;;
16954;SDS011;8594;52.052;8.354;2023-05-24T03:14:13;17.33;;;4.07;;
16954;SDS011;8594;52.052;8.354;2023-05-24T03:16:41;13.17;;;4.20;;
16954;SDS011;8594;52.052;8.354;2023-05-24T03:19:08;19.10;;;4.10;;
16954;SDS011;8594;52.052;8.354;2023-05-24T03:21:34;13.23;;;3.63;;
16954;SDS011;8594;52.052;8.354;2023-05-24T03:24:01;16.63;;;4.13;;
16954;SDS011;8594;52.052;8.354;2023-05-24T03:26:30;14.57;;;4.27;;
16954;SDS011;8594;52.052;8.354;2023-05-24T03:28:56;13.07;;;3.97;;
16954;SDS011;8594;52.052;8.354;2023-05-24T03:31:23;17.40;;;3.90;;
16954;SDS011;8594;52.052;8.354;2023-05-24T03:33:50;14.10;;;3.70;;
16954;SDS011;8594;52.052;8.354;2023-05-24T03:36:17;21.90;;;4.87;;
16954;SDS011;8594;52.052;8.354;2023-05-24T03:38:44;15.63;;;4.03;;
16954;SDS011;8594;52.052;8.354;2023-05-24T03:41:11;15.67;;;3.90;;
16954;SDS011;8594;52.052;8.354;2023-05-24T03:43:39;15.57;;;3.63;;
16954;SDS011;8594;52.052;8.354;2023-05-24T03:46:06;14.00;;;3.73;;
16954;SDS011;8594;52.052;8.354;2023-05-24T03:48:33;17.57;;;5.37;;
16954;SDS011;8594;52.052;8.354;2023-05-24T03:51:00;17.93;;;4.33;;
16954;SDS011;8594;52.052;8.354;2023-05-24T03:53:26;22.40;;;4.47;;
16954;SDS011;8594;52.052;8.354;2023-05-24T03:55:53;12.13;;;4.10;;
16954;SDS011;8594;52.052;8.354;2023-05-24T03:58:20;15.83;;;3.90;;
16954;SDS011;8594;52.052;8.354;2023-05-24T04:00:49;14.53;;;4.03;;
16954;SDS011;8594;52.052;8.354;2023-05-24T04:03:15;16.07;;;4.63;;
16954;SDS011;8594;52.052;8.354;2023-05-24T04:05:43;17.97;;;4.40;;
16954;SDS011;8594;52.052;8.354;2023-05-24T04:08:10;18.30;;;4.73;;
16954;SDS011;8594;52.052;8.354;2023-05-24T04:10:38;24.67;;;4.57;;
16954;SDS011;8594;52.052;8.354;2023-05-24T04:13:06;20.57;;;5.23;;
16954;SDS011;8594;52.052;8.354;2023-05-24T04:15:33;13.73;;;4.33;;
16954;SDS011;8594;52.052;8.354;2023-05-24T04:18:03;29.20;;;5.90;;
16954;SDS011;8594;52.052;8.354;2023-05-24T04:20:30;16.80;;;4.63;;
16954;SDS011;8594;52.052;8.354;2023-05-24T04:22:57;19.87;;;4.73;;
16954;SDS011;8594;52.052;8.354;2023-05-24T04:25:24;19.37;;;4.67;;
16954;SDS011;8594;52.052;8.354;2023-05-24T04:27:51;16.37;;;4.17;;
16954;SDS011;8594;52.052;8.354;2023-05-24T04:30:18;24.17;;;4.70;;
16954;SDS011;8594;52.052;8.354;2023-05-24T04:32:45;25.10;;;5.73;;
16954;SDS011;8594;52.052;8.354;2023-05-24T04:35:13;24.13;;;5.87;;
16954;SDS011;8594;52.052;8.354;2023-05-24T04:37:40;24.20;;;5.23;;
16954;SDS011;8594;52.052;8.354;2023-05-24T04:40:08;16.83;;;4.60;;
16954;SDS011;8594;52.052;8.354;2023-05-24T04:42:36;16.27;;;4.23;;
16954;SDS011;8594;52.052;8.354;2023-05-24T04:45:03;13.70;;;4.57;;
16954;SDS011;8594;52.052;8.354;2023-05-24T04:47:31;16.27;;;4.53;;
16954;SDS011;8594;52.052;8.354;2023-05-24T04:49:58;24.03;;;5.20;;
16954;SDS011;8594;52.052;8.354;2023-05-24T04:52:26;15.93;;;5.83;;
16954;SDS011;8594;52.052;8.354;2023-05-24T04:54:54;21.70;;;5.10;;
16954;SDS011;8594;52.052;8.354;2023-05-24T04:57:22;30.53;;;5.70;;
16954;SDS011;8594;52.052;8.354;2023-05-24T04:59:49;22.50;;;5.00;;
16954;SDS011;8594;52.052;8.354;2023-05-24T05:02:15;16.30;;;4.73;;
16954;SDS011;8594;52.052;8.354;2023-05-24T05:04:42;16.30;;;4.90;;
16954;SDS011;8594;52.052;8.354;2023-05-24T05:07:09;20.17;;;5.17;;
16954;SDS011;8594;52.052;8.354;2023-05-24T05:09:37;18.43;;;5.70;;
16954;SDS011;8594;52.052;8.354;2023-05-24T05:12:04;24.90;;;5.10;;
16954;SDS011;8594;52.052;8.354;2023-05-24T05:14:31;23.83;;;5.30;;
16954;SDS011;8594;52.052;8.354;2023-05-24T05:16:58;23.27;;;5.93;;
16954;SDS011;8594;52.052;8.354;2023-05-24T05:19:25;19.63;;;4.40;;
16954;SDS011;8594;52.052;8.354;2023-05-24T05:21:52;20.67;;;5.43;;
16954;SDS011;8594;52.052;8.354;2023-05-24T05:24:18;26.73;;;5.80;;
16954;SDS011;8594;52.052;8.354;2023-05-24T05:26:47;20.27;;;4.97;;
16954;SDS011;8594;52.052;8.354;2023-05-24T05:29:13;24.47;;;5.23;;
16954;SDS011;8594;52.052;8.354;2023-05-24T05:31:40;18.63;;;4.70;;
16954;SDS011;8594;52.052;8.354;2023-05-24T05:34:07;25.90;;;6.27;;
16954;SDS011;8594;52.052;8.354;2023-05-24T05:36:35;26.37;;;5.37;;
16954;SDS011;8594;52.052;8.354;2023-05-24T05:39:06;26.07;;;5.73;;
16954;SDS011;8594;52.052;8.354;2023-05-24T05:41:35;21.37;;;5.40;;
16954;SDS011;8594;52.052;8.354;2023-05-24T05:44:04;21.67;;;5.83;;
16954;SDS011;8594;52.052;8.354;2023-05-24T05:46:31;22.20;;;5.60;;
16954;SDS011;8594;52.052;8.354;2023-05-24T05:48:58;18.50;;;5.10;;
16954;SDS011;8594;52.052;8.354;2023-05-24T05:51:25;22.80;;;5.80;;
16954;SDS011;8594;52.052;8.354;2023-05-24T05:53:52;16.00;;;4.93;;
16954;SDS011;8594;52.052;8.354;2023-05-24T05:56:19;29.70;;;5.50;;
16954;SDS011;8594;52.052;8.354;2023-05-24T05:58:45;17.53;;;5.60;;
16954;SDS011;8594;52.052;8.354;2023-05-24T06:01:14;22.77;;;5.03;;
16954;SDS011;8594;52.052;8.354;2023-05-24T06:03:41;24.23;;;6.20;;
16954;SDS011;8594;52.052;8.354;2023-05-24T06:06:08;21.87;;;5.77;;
16954;SDS011;8594;52.052;8.354;2023-05-24T06:08:35;25.13;;;5.83;;
16954;SDS011;8594;52.052;8.354;2023-05-24T06:11:01;22.07;;;5.77;;
16954;SDS011;8594;52.052;8.354;2023-05-24T06:13:28;27.20;;;6.00;;
16954;SDS011;8594;52.052;8.354;2023-05-24T06:15:56;24.43;;;6.07;;
16954;SDS011;8594;52.052;8.354;2023-05-24T06:18:25;26.07;;;7.47;;
16954;SDS011;8594;52.052;8.354;2023-05-24T06:20:54;34.30;;;7.93;;
16954;SDS011;8594;52.052;8.354;2023-05-24T06:23:21;21.97;;;6.10;;
16954;SDS011;8594;52.052;8.354;2023-05-24T06:25:48;24.60;;;6.87;;
16954;SDS011;8594;52.052;8.354;2023-05-24T06:28:15;20.13;;;6.10;;
16954;SDS011;8594;52.052;8.354;2023-05-24T06:30:41;23.53;;;6.60;;
16954;SDS011;8594;52.052;8.354;2023-05-24T06:33:08;20.40;;;6.40;;
16954;SDS011;8594;52.052;8.354;2023-05-24T06:35:36;21.40;;;6.70;;
16954;SDS011;8594;52.052;8.354;2023-05-24T06:38:03;25.90;;;6.93;;
16954;SDS011;8594;52.052;8.354;2023-05-24T06:40:30;25.23;;;6.57;;
16954;SDS011;8594;52.052;8.354;2023-05-24T06:42:57;23.37;;;6.10;;
16954;SDS011;8594;52.052;8.354;2023-05-24T06:45:24;20.70;;;6.47;;
16954;SDS011;8594;52.052;8.354;2023-05-24T06:47:50;26.07;;;6.97;;
16954;SDS011;8594;52.052;8.354;2023-05-24T06:50:17;24.40;;;6.90;;
16954;SDS011;8594;52.052;8.354;2023-05-24T06:52:45;22.03;;;6.77;;
16954;SDS011;8594;52.052;8.354;2023-05-24T06:55:12;25.87;;;6.67;;
16954;SDS011;8594;52.052;8.354;2023-05-24T06:57:39;25.53;;;6.53;;
16954;SDS011;8594;52.052;8.354;2023-05-24T07:00:07;26.83;;;7.23;;
16954;SDS011;8594;52.052;8.354;2023-05-24T07:02:36;25.13;;;7.47;;
16954;SDS011;8594;52.052;8.354;2023-05-24T07:05:03;30.20;;;6.97;;
16954;SDS011;8594;52.052;8.354;2023-05-24T07:07:34;28.63;;;6.60;;
16954;SDS011;8594;52.052;8.354;2023-05-24T07:10:03;31.67;;;7.30;;
16954;SDS011;8594;52.052;8.354;2023-05-24T07:12:32;27.27;;;6.77;;
16954;SDS011;8594;52.052;8.354;2023-05-24T07:14:58;27.77;;;7.47;;
16954;SDS011;8594;52.052;8.354;2023-05-24T07:17:25;26.13;;;7.13;;
16954;SDS011;8594;52.052;8.354;2023-05-24T07:19:52;20.77;;;7.17;;
16954;SDS011;8594;52.052;8.354;2023-05-24T07:22:19;29.43;;;7.03;;
16954;SDS011;8594;52.052;8.354;2023-05-24T07:24:46;21.93;;;6.67;;
16954;SDS011;8594;52.052;8.354;2023-05-24T07:27:14;19.93;;;6.27;;
16954;SDS011;8594;52.052;8.354;2023-05-24T07:29:41;29.20;;;6.40;;
16954;SDS011;8594;52.052;8.354;2023-05-24T07:32:08;24.63;;;6.43;;
16954;SDS011;8594;52.052;8.354;2023-05-24T07:34:34;24.60;;;6.27;;
16954;SDS011;8594;52.052;8.354;2023-05-24T07:37:03;21.73;;;6.00;;
16954;SDS011;8594;52.052;8.354;2023-05-24T07:39:30;24.83;;;7.47;;
16954;SDS011;8594;52.052;8.354;2023-05-24T07:41:57;26.83;;;6.50;;
16954;SDS011;8594;52.052;8.354;2023-05-24T07:44:27;28.07;;;7.20;;
16954;SDS011;8594;52.052;8.354;2023-05-24T07:46:54;30.50;;;7.03;;
16954;SDS011;8594;52.052;8.354;2023-05-24T07:49:21;26.67;;;6.13;;
16954;SDS011;8594;52.052;8.354;2023-05-24T07:51:48;25.70;;;6.83;;
16954;SDS011;8594;52.052;8.354;2023-05-24T07:54:14;22.77;;;6.50;;
16954;SDS011;8594;52.052;8.354;2023-05-24T07:56:41;23.20;;;6.63;;
16954;SDS011;8594;52.052;8.354;2023-05-24T07:59:08;29.47;;;6.87;;
16954;SDS011;8594;52.052;8.354;2023-05-24T08:01:36;25.83;;;6.60;;
16954;SDS011;8594;52.052;8.354;2023-05-24T08:04:03;23.77;;;5.97;;
16954;SDS011;8594;52.052;8.354;2023-05-24T08:06:32;22.20;;;6.77;;
16954;SDS011;8594;52.052;8.354;2023-05-24T08:08:59;28.00;;;5.87;;
16954;SDS011;8594;52.052;8.354;2023-05-24T08:11:26;31.63;;;6.87;;
16954;SDS011;8594;52.052;8.354;2023-05-24T08:13:52;28.60;;;6.67;;
16954;SDS011;8594;52.052;8.354;2023-05-24T08:16:19;33.17;;;7.00;;
16954;SDS011;8594;52.052;8.354;2023-05-24T08:18:47;24.53;;;5.60;;
16954;SDS011;8594;52.052;8.354;2023-05-24T08:21:14;24.73;;;6.67;;
16954;SDS011;8594;52.052;8.354;2023-05-24T08:23:41;24.47;;;6.43;;
16954;SDS011;8594;52.052;8.354;2023-05-24T08:26:08;29.87;;;7.50;;
16954;SDS011;8594;52.052;8.354;2023-05-24T08:28:35;25.03;;;5.97;;
16954;SDS011;8594;52.052;8.354;2023-05-24T08:31:01;27.43;;;7.10;;
16954;SDS011;8594;52.052;8.354;2023-05-24T08:33:29;25.50;;;6.17;;
16954;SDS011;8594;52.052;8.354;2023-05-24T08:35:57;20.43;;;6.07;;
16954;SDS011;8594;52.052;8.354;2023-05-24T08:38:23;25.70;;;6.07;;
16954;SDS011;8594;52.052;8.354;2023-05-24T08:40:50;24.47;;;6.90;;
16954;SDS011;8594;52.052;8.354;2023-05-24T08:43:17;22.17;;;5.87;;
16954;SDS011;8594;52.052;8.354;2023-05-24T08:45:45;24.70;;;5.83;;
16954;SDS011;8594;52.052;8.354;2023-05-24T08:48:13;24.70;;;5.77;;
16954;SDS011;8594;52.052;8.354;2023-05-24T08:50:42;25.20;;;5.90;;
16954;SDS011;8594;52.052;8.354;2023-05-24T08:53:11;25.03;;;5.10;;
16954;SDS011;8594;52.052;8.354;2023-05-24T08:55:39;21.33;;;5.40;;
16954;SDS011;8594;52.052;8.354;2023-05-24T08:58:07;30.33;;;6.03;;
16954;SDS011;8594;52.052;8.354;2023-05-24T09:00:36;21.00;;;5.23;;
16954;SDS011;8594;52.052;8.354;2023-05-24T09:03:03;23.00;;;5.33;;
16954;SDS011;8594;52.052;8.354;2023-05-24T09:05:32;23.97;;;5.70;;
16954;SDS011;8594;52.052;8.354;2023-05-24T09:08:02;23.33;;;4.53;;
16954;SDS011;8594;52.052;8.354;2023-05-24T09:10:31;17.53;;;4.87;;
16954;SDS011;8594;52.052;8.354;2023-05-24T09:13:00;20.47;;;5.13;;
16954;SDS011;8594;52.052;8.354;2023-05-24T09:15:28;26.57;;;5.13;;
16954;SDS011;8594;52.052;8.354;2023-05-24T09:17:55;17.10;;;4.80;;
16954;SDS011;8594;52.052;8.354;2023-05-24T09:20:22;20.27;;;4.90;;
16954;SDS011;8594;52.052;8.354;2023-05-24T09:22:50;26.33;;;4.87;;
16954;SDS011;8594;52.052;8.354;2023-05-24T09:25:18;20.60;;;4.97;;
16954;SDS011;8594;52.052;8.354;2023-05-24T09:27:49;26.43;;;5.50;;
16954;SDS011;8594;52.052;8.354;2023-05-24T09:30:17;25.83;;;5.30;;
16954;SDS011;8594;52.052;8.354;2023-05-24T09:32:55;20.77;;;4.90;;
16954;SDS011;8594;52.052;8.354;2023-05-24T09:35:25;27.70;;;5.50;;
16954;SDS011;8594;52.052;8.354;2023-05-24T09:37:53;27.97;;;6.07;;
16954;SDS011;8594;52.052;8.354;2023-05-24T09:40:21;28.33;;;5.37;;
16954;SDS011;8594;52.052;8.354;2023-05-24T09:42:52;27.07;;;5.50;;
16954;SDS011;8594;52.052;8.354;2023-05-24T09:45:28;26.23;;;5.57;;
16954;SDS011;8594;52.052;8.354;2023-05-24T09:47:55;27.30;;;5.47;;
16954;SDS011;8594;52.052;8.354;2023-05-24T09:50:23;21.60;;;4.63;;
16954;SDS011;8594;52.052;8.354;2023-05-24T09:52:52;23.30;;;5.40;;
16954;SDS011;8594;52.052;8.354;2023-05-24T09:55:20;21.03;;;5.00;;
16954;SDS011;8594;52.052;8.354;2023-05-24T09:57:49;23.30;;;5.17;;
16954;SDS011;8594;52.052;8.354;2023-05-24T10:00:27;24.93;;;5.13;;
16954;SDS011;8594;52.052;8.354;2023-05-24T10:03:01;22.70;;;5.60;;
16954;SDS011;8594;52.052;8.354;2023-05-24T10:05:31;15.87;;;4.63;;
16954;SDS011;8594;52.052;8.354;2023-05-24T10:07:58;25.50;;;5.77;;
16954;SDS011;8594;52.052;8.354;2023-05-24T10:10:29;27.07;;;5.13;;
16954;SDS011;8594;52.052;8.354;2023-05-24T10:12:58;20.93;;;4.53;;
16954;SDS011;8594;52.052;8.354;2023-05-24T10:15:27;21.90;;;4.97;;
16954;SDS011;8594;52.052;8.354;2023-05-24T10:17:55;20.97;;;5.10;;
16954;SDS011;8594;52.052;8.354;2023-05-24T10:20:23;18.33;;;4.57;;
16954;SDS011;8594;52.052;8.354;2023-05-24T10:22:51;16.57;;;4.60;;
16954;SDS011;8594;52.052;8.354;2023-05-24T10:25:20;23.83;;;5.50;;
16954;SDS011;8594;52.052;8.354;2023-05-24T10:27:50;27.17;;;5.50;;
16954;SDS011;8594;52.052;8.354;2023-05-24T10:30:23;23.47;;;4.63;;
16954;SDS011;8594;52.052;8.354;2023-05-24T10:32:58;25.57;;;4.70;;
16954;SDS011;8594;52.052;8.354;2023-05-24T10:35:27;21.37;;;5.00;;
16954;SDS011;8594;52.052;8.354;2023-05-24T10:37:56;16.23;;;4.77;;
16954;SDS011;8594;52.052;8.354;2023-05-24T10:40:23;24.60;;;5.07;;
16954;SDS011;8594;52.052;8.354;2023-05-24T10:42:51;17.90;;;5.00;;
16954;SDS011;8594;52.052;8.354;2023-05-24T10:45:33;25.90;;;5.10;;
16954;SDS011;8594;52.052;8.354;2023-05-24T10:48:07;24.20;;;5.43;;
16954;SDS011;8594;52.052;8.354;2023-05-24T10:50:49;21.17;;;4.80;;
16954;SDS011;8594;52.052;8.354;2023-05-24T10:53:17;25.90;;;4.63;;
16954;SDS011;8594;52.052;8.354;2023-05-24T10:55:50;23.40;;;5.47;;
16954;SDS011;8594;52.052;8.354;2023-05-24T10:58:18;23.67;;;4.90;;
16954;SDS011;8594;52.052;8.354;2023-05-24T11:00:48;21.53;;;5.27;;
16954;SDS011;8594;52.052;8.354;2023-05-24T11:03:17;31.87;;;5.30;;
16954;SDS011;8594;52.052;8.354;2023-05-24T11:05:49;24.47;;;5.03;;
16954;SDS011;8594;52.052;8.354;2023-05-24T11:08:23;15.90;;;4.87;;
16954;SDS011;8594;52.052;8.354;2023-05-24T11:11:00;27.07;;;5.73;;
16954;SDS011;8594;52.052;8.354;2023-05-24T11:13:31;15.53;;;4.43;;
16954;SDS011;8594;52.052;8.354;2023-05-24T11:15:59;19.93;;;5.00;;
16954;SDS011;8594;52.052;8.354;2023-05-24T11:18:27;23.53;;;5.00;;
16954;SDS011;8594;52.052;8.354;2023-05-24T11:20:54;24.10;;;5.10;;
16954;SDS011;8594;52.052;8.354;2023-05-24T11:23:25;23.97;;;5.20;;
16954;SDS011;8594;52.052;8.354;2023-05-24T11:25:53;21.70;;;5.00;;
16954;SDS011;8594;52.052;8.354;2023-05-24T11:28:21;22.10;;;4.87;;
16954;SDS011;8594;52.052;8.354;2023-05-24T11:30:49;26.67;;;5.53;;
16954;SDS011;8594;52.052;8.354;2023-05-24T11:33:17;23.50;;;5.07;;
16954;SDS011;8594;52.052;8.354;2023-05-24T11:35:46;22.27;;;4.80;;
16954;SDS011;8594;52.052;8.354;2023-05-24T11:38:16;21.33;;;5.40;;
16954;SDS011;8594;52.052;8.354;2023-05-24T11:40:45;22.90;;;5.73;;
16954;SDS011;8594;52.052;8.354;2023-05-24T11:43:15;21.33;;;5.33;;
16954;SDS011;8594;52.052;8.354;2023-05-24T11:45:44;30.93;;;6.80;;
16954;SDS011;8594;52.052;8.354;2023-05-24T11:48:14;18.87;;;5.10;;
16954;SDS011;8594;52.052;8.354;2023-05-24T11:50:44;27.47;;;5.70;;
16954;SDS011;8594;52.052;8.354;2023-05-24T11:53:14;20.70;;;6.00;;
16954;SDS011;8594;52.052;8.354;2023-05-24T11:55:44;22.13;;;6.07;;
16954;SDS011;8594;52.052;8.354;2023-05-24T11:58:13;25.17;;;6.40;;
16954;SDS011;8594;52.052;8.354;2023-05-24T12:00:48;17.67;;;5.53;;
16954;SDS011;8594;52.052;8.354;2023-05-24T12:03:16;21.00;;;5.17;;
16954;SDS011;8594;52.052;8.354;2023-05-24T12:05:43;22.13;;;6.10;;
16954;SDS011;8594;52.052;8.354;2023-05-24T12:08:11;21.27;;;5.40;;
16954;SDS011;8594;52.052;8.354;2023-05-24T12:10:39;18.43;;;5.30;;
16954;SDS011;8594;52.052;8.354;2023-05-24T12:13:16;25.67;;;5.50;;
16954;SDS011;8594;52.052;8.354;2023-05-24T12:15:48;19.13;;;5.67;;
16954;SDS011;8594;52.052;8.354;2023-05-24T12:18:18;20.43;;;5.03;;
16954;SDS011;8594;52.052;8.354;2023-05-24T12:20:45;20.97;;;5.10;;
16954;SDS011;8594;52.052;8.354;2023-05-24T12:23:13;22.13;;;6.03;;
16954;SDS011;8594;52.052;8.354;2023-05-24T12:25:41;19.20;;;5.20;;
16954;SDS011;8594;52.052;8.354;2023-05-24T12:28:08;19.37;;;5.83;;
16954;SDS011;8594;52.052;8.354;2023-05-24T12:30:36;27.10;;;5.23;;
16954;SDS011;8594;52.052;8.354;2023-05-24T12:33:07;23.87;;;5.20;;
16954;SDS011;8594;52.052;8.354;2023-05-24T12:35:36;20.00;;;5.40;;
16954;SDS011;8594;52.052;8.354;2023-05-24T12:38:07;17.97;;;5.00;;
16954;SDS011;8594;52.052;8.354;2023-05-24T12:40:35;20.53;;;5.57;;
16954;SDS011;8594;52.052;8.354;2023-05-24T12:43:02;22.70;;;5.33;;
16954;SDS011;8594;52.052;8.354;2023-05-24T12:45:30;22.17;;;7.00;;
16954;SDS011;8594;52.052;8.354;2023-05-24T12:47:57;24.73;;;7.23;;
16954;SDS011;8594;52.052;8.354;2023-05-24T12:50:26;24.10;;;6.00;;
16954;SDS011;8594;52.052;8.354;2023-05-24T12:52:55;26.03;;;5.70;;
16954;SDS011;8594;52.052;8.354;2023-05-24T12:55:23;23.07;;;7.20;;
16954;SDS011;8594;52.052;8.354;2023-05-24T12:57:52;25.23;;;9.23;;
16954;SDS011;8594;52.052;8.354;2023-05-24T13:00:20;23.33;;;6.17;;
16954;SDS011;8594;52.052;8.354;2023-05-24T13:02:50;24.30;;;7.47;;
16954;SDS011;8594;52.052;8.354;2023-05-24T13:05:20;22.90;;;5.47;;
16954;SDS011;8594;52.052;8.354;2023-05-24T13:07:48;24.43;;;6.77;;
16954;SDS011;8594;52.052;8.354;2023-05-24T13:10:17;24.23;;;7.70;;
16954;SDS011;8594;52.052;8.354;2023-05-24T13:12:44;23.90;;;7.70;;
16954;SDS011;8594;52.052;8.354;2023-05-24T13:15:12;41.53;;;10.10;;
16954;SDS011;8594;52.052;8.354;2023-05-24T13:17:39;19.53;;;5.30;;
16954;SDS011;8594;52.052;8.354;2023-05-24T13:20:06;33.43;;;6.20;;
16954;SDS011;8594;52.052;8.354;2023-05-24T13:22:35;27.47;;;5.50;;
16954;SDS011;8594;52.052;8.354;2023-05-24T13:25:04;18.10;;;6.27;;
16954;SDS011;8594;52.052;8.354;2023-05-24T13:27:35;20.83;;;6.13;;
16954;SDS011;8594;52.052;8.354;2023-05-24T13:30:02;23.77;;;5.30;;
16954;SDS011;8594;52.052;8.354;2023-05-24T13:32:29;24.93;;;5.43;;
16954;SDS011;8594;52.052;8.354;2023-05-24T13:34:57;20.60;;;5.30;;
16954;SDS011;8594;52.052;8.354;2023-05-24T13:37:24;28.23;;;5.93;;
16954;SDS011;8594;52.052;8.354;2023-05-24T13:39:51;19.57;;;6.73;;
16954;SDS011;8594;52.052;8.354;2023-05-24T13:42:18;24.43;;;7.37;;
16954;SDS011;8594;52.052;8.354;2023-05-24T13:44:46;24.10;;;6.07;;
16954;SDS011;8594;52.052;8.354;2023-05-24T13:47:14;47.77;;;17.80;;
16954;SDS011;8594;52.052;8.354;2023-05-24T13:49:43;18.63;;;5.50;;
16954;SDS011;8594;52.052;8.354;2023-05-24T13:52:11;23.23;;;5.30;;
16954;SDS011;8594;52.052;8.354;2023-05-24T13:54:37;23.03;;;5.17;;
16954;SDS011;8594;52.052;8.354;2023-05-24T13:57:04;21.10;;;5.80;;
16954;SDS011;8594;52.052;8.354;2023-05-24T13:59:31;27.63;;;5.80;;
16954;SDS011;8594;52.052;8.354;2023-05-24T14:01:59;27.27;;;9.57;;
16954;SDS011;8594;52.052;8.354;2023-05-24T14:04:26;21.63;;;7.97;;
16954;SDS011;8594;52.052;8.354;2023-05-24T14:06:54;26.50;;;11.70;;
16954;SDS011;8594;52.052;8.354;2023-05-24T14:09:21;23.63;;;6.10;;
16954;SDS011;8594;52.052;8.354;2023-05-24T14:11:50;27.97;;;7.90;;
16954;SDS011;8594;52.052;8.354;2023-05-24T14:14:17;24.30;;;6.97;;
16954;SDS011;8594;52.052;8.354;2023-05-24T14:16:44;24.00;;;6.10;;
16954;SDS011;8594;52.052;8.354;2023-05-24T14:19:16;23.93;;;7.73;;
16954;SDS011;8594;52.052;8.354;2023-05-24T14:21:43;23.47;;;6.63;;
16954;SDS011;8594;52.052;8.354;2023-05-24T14:24:10;18.00;;;5.60;;
16954;SDS011;8594;52.052;8.354;2023-05-24T14:26:37;18.73;;;4.97;;
16954;SDS011;8594;52.052;8.354;2023-05-24T14:29:05;21.60;;;5.77;;
16954;SDS011;8594;52.052;8.354;2023-05-24T14:31:32;20.47;;;5.37;;
16954;SDS011;8594;52.052;8.354;2023-05-24T14:33:59;25.80;;;5.50;;
16954;SDS011;8594;52.052;8.354;2023-05-24T14:36:27;28.27;;;5.90;;
16954;SDS011;8594;52.052;8.354;2023-05-24T14:38:54;22.00;;;5.40;;
16954;SDS011;8594;52.052;8.354;2023-05-24T14:41:21;17.00;;;4.50;;
16954;SDS011;8594;52.052;8.354;2023-05-24T14:43:48;20.07;;;5.33;;
16954;SDS011;8594;52.052;8.354;2023-05-24T14:46:15;21.33;;;5.27;;
16954;SDS011;8594;52.052;8.354;2023-05-24T14:48:42;21.37;;;4.90;;
16954;SDS011;8594;52.052;8.354;2023-05-24T14:51:09;22.53;;;5.20;;
16954;SDS011;8594;52.052;8.354;2023-05-24T14:53:56;20.20;;;6.23;;
16954;SDS011;8594;52.052;8.354;2023-05-24T14:56:41;19.83;;;5.73;;